Time;durP1;ratioP1;P1;durP2;ratioP2;P2;SDS_P1;SDS_P2;PMS_P1;PMS_P2;Temp;Humidity;BMP_temperature;BMP_pressure;BME280_temperature;BME280_humidity;BME280_pressure;Samples;Min_cycle;Max_cycle;Signal;HPM_P1;HPM_P2
2022/11/07 00:00:30;;;;;;;9.77;3.37;;;17.40;89.10;;;;;;6122212;23;20181;-79
2022/11/07 00:02:58;;;;;;;6.57;3.07;;;17.40;89.00;;;;;;6124907;23;20201;-79
2022/11/07 00:05:27;;;;;;;9.68;3.35;;;17.30;88.90;;;;;;6117607;23;20467;-78
2022/11/07 00:07:56;;;;;;;8.40;3.03;;;17.40;89.30;;;;;;6123244;23;20634;-80
2022/11/07 00:10:24;;;;;;;10.80;3.63;;;17.30;89.20;;;;;;6121572;23;20247;-77
2022/11/07 00:12:53;;;;;;;9.13;3.10;;;17.30;89.30;;;;;;6122003;23;20240;-80
2022/11/07 00:15:21;;;;;;;8.97;3.37;;;17.40;89.40;;;;;;6120194;23;20701;-79
2022/11/07 00:17:50;;;;;;;9.00;3.73;;;17.40;89.30;;;;;;6121514;23;20745;-80
2022/11/07 00:20:18;;;;;;;10.20;3.55;;;17.40;89.20;;;;;;6120925;23;20388;-78
2022/11/07 00:22:46;;;;;;;12.07;3.70;;;17.40;89.40;;;;;;6119888;23;20181;-78
2022/11/07 00:25:16;;;;;;;8.53;3.80;;;17.40;90.00;;;;;;6120579;23;20173;-80
2022/11/07 00:27:44;;;;;;;9.40;3.40;;;17.40;89.20;;;;;;6122537;23;20760;-80
2022/11/07 00:30:13;;;;;;;8.37;3.57;;;17.40;89.20;;;;;;6122809;23;20257;-78
2022/11/07 00:32:41;;;;;;;8.50;3.63;;;17.40;89.10;;;;;;6121564;23;20177;-79
2022/11/07 00:35:10;;;;;;;9.63;3.43;;;17.40;89.10;;;;;;6121828;23;20228;-78
2022/11/07 00:37:38;;;;;;;9.93;3.70;;;17.50;89.00;;;;;;6122486;23;20173;-79
2022/11/07 00:40:08;;;;;;;11.80;3.80;;;17.50;88.90;;;;;;6123055;23;20228;-80
2022/11/07 00:42:38;;;;;;;11.30;4.07;;;17.50;88.90;;;;;;6123420;23;20215;-78
2022/11/07 00:45:07;;;;;;;9.80;3.80;;;17.40;88.70;;;;;;6123012;23;20507;-78
2022/11/07 00:47:35;;;;;;;9.67;3.83;;;17.40;88.80;;;;;;6124962;23;20556;-78
2022/11/07 00:50:04;;;;;;;7.37;3.50;;;17.40;88.80;;;;;;6121857;23;20181;-77
2022/11/07 00:52:32;;;;;;;8.00;3.03;;;17.40;88.80;;;;;;6121294;23;20493;-78
2022/11/07 00:55:01;;;;;;;11.67;3.87;;;17.40;88.70;;;;;;6123987;23;20604;-78
2022/11/07 00:57:30;;;;;;;10.00;3.90;;;17.40;88.60;;;;;;6121964;23;20173;-78
2022/11/07 01:00:00;;;;;;;8.27;3.70;;;17.50;88.70;;;;;;6122349;23;20177;-80
2022/11/07 01:02:28;;;;;;;6.17;3.33;;;17.40;88.60;;;;;;6120943;23;20181;-79
2022/11/07 01:05:11;;;;;;;7.43;3.33;;;17.40;88.60;;;;;;6119845;23;20178;-78
2022/11/07 01:07:40;;;;;;;7.33;3.40;;;17.50;89.40;;;;;;6122887;23;20243;-78
2022/11/07 01:10:08;;;;;;;9.73;3.73;;;17.40;88.50;;;;;;6121983;23;20174;-79
2022/11/07 01:12:36;;;;;;;8.40;3.90;;;17.40;88.50;;;;;;6122348;23;20224;-79
2022/11/07 01:15:07;;;;;;;7.90;3.47;;;17.40;88.50;;;;;;6123753;23;20173;-78
2022/11/07 01:17:35;;;;;;;11.93;3.80;;;17.40;88.50;;;;;;6123379;23;20219;-79
2022/11/07 01:20:04;;;;;;;12.57;4.00;;;17.40;88.30;;;;;;6123023;23;20223;-79
2022/11/07 01:22:33;;;;;;;10.43;4.20;;;17.40;88.20;;;;;;6121699;23;20244;-77
2022/11/07 01:25:01;;;;;;;7.90;3.87;;;17.40;88.20;;;;;;6118708;23;20744;-80
2022/11/07 01:27:29;;;;;;;12.03;4.00;;;17.40;88.20;;;;;;6123123;23;20201;-79
2022/11/07 01:29:58;;;;;;;8.57;3.47;;;17.40;88.20;;;;;;6119627;23;20178;-79
2022/11/07 01:32:28;;;;;;;8.27;4.00;;;17.40;88.30;;;;;;6120061;23;20203;-78
2022/11/07 01:34:56;;;;;;;10.90;4.37;;;17.40;88.30;;;;;;6121278;23;20216;-80
2022/11/07 01:37:24;;;;;;;8.37;4.10;;;17.40;88.30;;;;;;6123491;23;20294;-78
2022/11/07 01:39:52;;;;;;;12.70;3.77;;;17.40;88.30;;;;;;6120196;23;20275;-78
2022/11/07 01:42:22;;;;;;;11.70;3.97;;;17.40;88.30;;;;;;6123614;23;20177;-78
2022/11/07 01:44:54;;;;;;;9.30;4.37;;;17.40;88.20;;;;;;6121561;23;20233;-76
2022/11/07 01:47:25;;;;;;;9.40;4.33;;;17.40;88.30;;;;;;6122949;23;20654;-80
2022/11/07 01:49:55;;;;;;;14.87;4.67;;;17.30;88.10;;;;;;6121847;23;20193;-79
2022/11/07 01:52:27;;;;;;;12.97;4.60;;;17.40;88.20;;;;;;6121932;23;20224;-80
2022/11/07 01:55:00;;;;;;;9.03;4.47;;;17.40;88.10;;;;;;6121026;23;20611;-79
2022/11/07 01:57:33;;;;;;;15.03;4.40;;;17.40;88.10;;;;;;6119665;23;20169;-79
2022/11/07 02:00:05;;;;;;;12.63;4.40;;;17.30;88.00;;;;;;6121448;23;20165;-79
2022/11/07 02:02:34;;;;;;;8.63;4.10;;;17.30;88.00;;;;;;6121172;23;20165;-78
2022/11/07 02:05:06;;;;;;;12.90;4.97;;;17.30;88.00;;;;;;6121084;23;20181;-79
2022/11/07 02:07:35;;;;;;;11.63;4.50;;;17.30;88.00;;;;;;6122241;23;20646;-79
2022/11/07 02:10:05;;;;;;;8.33;3.90;;;17.30;88.00;;;;;;6120551;23;20177;-79
2022/11/07 02:12:33;;;;;;;14.47;4.50;;;17.30;88.00;;;;;;6121239;23;20228;-77
2022/11/07 02:15:02;;;;;;;10.20;4.87;;;17.30;88.00;;;;;;6121274;23;20173;-79
2022/11/07 02:17:30;;;;;;;11.60;4.20;;;17.30;88.10;;;;;;6119590;23;20209;-78
2022/11/07 02:19:58;;;;;;;10.03;4.50;;;17.30;88.10;;;;;;6121862;23;20221;-79
2022/11/07 02:22:35;;;;;;;10.60;4.97;;;17.30;88.10;;;;;;6122592;23;20177;-77
2022/11/07 02:25:08;;;;;;;12.63;5.20;;;17.30;88.00;;;;;;6122078;23;20654;-77
2022/11/07 02:27:38;;;;;;;9.90;4.40;;;17.30;88.00;;;;;;6121420;23;20264;-79
2022/11/07 02:30:09;;;;;;;11.30;4.33;;;17.30;87.90;;;;;;6122260;23;20499;-78
2022/11/07 02:32:37;;;;;;;9.73;4.33;;;17.30;87.90;;;;;;6122015;23;21093;-78
2022/11/07 02:35:27;;;;;;;8.33;4.03;;;17.30;87.90;;;;;;6121082;23;20188;-78
2022/11/07 02:37:56;;;;;;;10.23;4.80;;;17.30;87.90;;;;;;6121658;23;20497;-77
2022/11/07 02:40:27;;;;;;;7.77;5.10;;;17.30;87.90;;;;;;6122748;23;20248;-79
2022/11/07 02:42:56;;;;;;;10.70;4.47;;;17.30;87.70;;;;;;6122781;23;20213;-78
2022/11/07 02:45:27;;;;;;;8.70;4.20;;;17.30;87.70;;;;;;6119762;23;20188;-78
2022/11/07 02:47:56;;;;;;;8.97;4.57;;;17.30;87.70;;;;;;6123011;23;20216;-78
2022/11/07 02:50:25;;;;;;;13.33;4.50;;;17.30;87.70;;;;;;6120943;23;20713;-78
2022/11/07 02:52:53;;;;;;;9.43;4.90;;;17.30;87.70;;;;;;6121891;23;20174;-78
2022/11/07 02:55:21;;;;;;;9.23;4.50;;;17.30;87.70;;;;;;6121949;23;20228;-78
2022/11/07 02:57:51;;;;;;;10.40;4.90;;;17.30;87.70;;;;;;6121494;23;20216;-79
2022/11/07 03:00:19;;;;;;;12.90;4.73;;;17.30;87.60;;;;;;6119915;23;20406;-78
2022/11/07 03:02:47;;;;;;;10.43;4.97;;;17.30;87.50;;;;;;6120052;23;20172;-79
2022/11/07 03:05:18;;;;;;;13.10;5.27;;;17.30;87.50;;;;;;6120817;23;20179;-78
2022/11/07 03:07:48;;;;;;;17.10;4.97;;;17.30;87.50;;;;;;6122010;23;20510;-77
2022/11/07 03:10:18;;;;;;;11.37;5.23;;;17.30;87.60;;;;;;6122311;23;20208;-79
2022/11/07 03:12:46;;;;;;;9.03;4.77;;;17.30;87.50;;;;;;6121041;23;20169;-79
2022/11/07 03:15:16;;;;;;;9.97;4.70;;;17.30;87.50;;;;;;6121222;23;20497;-78
2022/11/07 03:17:44;;;;;;;9.60;5.07;;;17.30;87.50;;;;;;6120286;23;20384;-78
2022/11/07 03:20:12;;;;;;;10.87;5.40;;;17.40;87.90;;;;;;6121807;23;20212;-78
2022/11/07 03:22:41;;;;;;;12.47;5.03;;;17.30;87.60;;;;;;6123095;23;20180;-79
2022/11/07 03:25:09;;;;;;;11.50;5.17;;;17.30;87.60;;;;;;6122200;23;20173;-78
2022/11/07 03:27:46;;;;;;;9.77;4.97;;;17.30;87.50;;;;;;6119288;23;20670;-79
2022/11/07 03:30:16;;;;;;;8.20;4.97;;;17.30;87.40;;;;;;6121541;23;20607;-77
2022/11/07 03:32:45;;;;;;;11.73;5.43;;;17.30;87.30;;;;;;6121197;23;20192;-79
2022/11/07 03:35:14;;;;;;;11.40;5.60;;;17.40;87.20;;;;;;6122206;23;20224;-78
2022/11/07 03:37:45;;;;;;;12.33;5.50;;;17.30;87.00;;;;;;6121732;23;20227;-78
2022/11/07 03:40:14;;;;;;;12.80;5.70;;;17.30;86.90;;;;;;6123107;23;20262;-78
2022/11/07 03:42:44;;;;;;;9.33;5.50;;;17.30;86.80;;;;;;6122366;23;20173;-79
2022/11/07 03:45:13;;;;;;;9.37;5.37;;;17.30;86.80;;;;;;6121579;23;20173;-78
2022/11/07 03:47:44;;;;;;;9.33;5.17;;;17.30;86.80;;;;;;6120223;23;20225;-78
2022/11/07 03:50:15;;;;;;;12.83;5.27;;;17.40;86.80;;;;;;6123112;23;20197;-79
2022/11/07 03:52:44;;;;;;;9.27;5.20;;;17.30;86.70;;;;;;6121575;23;20288;-78
2022/11/07 03:55:14;;;;;;;7.73;4.70;;;17.40;86.60;;;;;;6124446;23;20619;-77
2022/11/07 03:57:43;;;;;;;11.33;5.10;;;17.40;86.60;;;;;;6118085;23;20241;-78
2022/11/07 04:00:13;;;;;;;9.20;4.63;;;17.40;86.60;;;;;;6122301;23;20173;-77
2022/11/07 04:02:43;;;;;;;9.83;4.73;;;17.40;86.40;;;;;;6120313;23;20170;-79
2022/11/07 04:05:12;;;;;;;10.00;5.20;;;17.40;86.20;;;;;;6121498;23;20224;-78
2022/11/07 04:07:40;;;;;;;10.70;4.73;;;17.40;86.10;;;;;;6121858;23;20255;-80
2022/11/07 04:10:08;;;;;;;9.20;4.63;;;17.40;86.10;;;;;;6121308;23;20225;-78
2022/11/07 04:18:09;;;;;;;12.07;5.73;;;17.40;86.10;;;;;;6121725;23;20158;-77
2022/11/07 04:20:38;;;;;;;11.03;4.73;;;17.40;86.10;;;;;;6121811;23;20232;-78
2022/11/07 04:23:06;;;;;;;13.40;5.77;;;17.40;86.10;;;;;;6122744;23;20205;-79
2022/11/07 04:28:20;;;;;;;12.93;4.83;;;17.40;86.10;;;;;;6121231;23;20275;-78
2022/11/07 04:30:48;;;;;;;11.77;5.47;;;17.40;86.10;;;;;;6122733;23;20184;-78
2022/11/07 04:33:18;;;;;;;11.53;4.97;;;17.40;86.10;;;;;;6124776;23;20587;-78
2022/11/07 04:35:46;;;;;;;12.40;5.00;;;17.30;86.10;;;;;;6122770;23;20173;-78
2022/11/07 04:38:15;;;;;;;9.93;4.70;;;17.30;86.20;;;;;;6122725;23;20365;-77
2022/11/07 04:40:43;;;;;;;13.43;4.33;;;17.30;86.20;;;;;;6123096;23;20173;-78
2022/11/07 04:43:11;;;;;;;12.83;4.77;;;17.30;86.20;;;;;;6122354;23;20574;-78
2022/11/07 04:45:40;;;;;;;13.33;4.33;;;17.30;86.30;;;;;;6121071;23;20176;-80
2022/11/07 04:48:09;;;;;;;11.33;5.07;;;17.30;86.20;;;;;;6121592;23;20749;-79
2022/11/07 04:50:39;;;;;;;16.30;4.90;;;17.40;86.30;;;;;;6121634;23;20173;-77
2022/11/07 04:53:08;;;;;;;12.73;5.60;;;17.30;86.10;;;;;;6118922;23;20178;-77
2022/11/07 04:55:36;;;;;;;10.33;4.93;;;17.30;86.10;;;;;;6121324;23;20697;-80
2022/11/07 04:58:04;;;;;;;12.17;4.80;;;17.30;86.20;;;;;;6122797;23;20177;-78
2022/11/07 05:00:32;;;;;;;15.73;6.10;;;17.30;87.00;;;;;;6121892;23;20392;-78
2022/11/07 05:03:01;;;;;;;10.20;5.67;;;17.30;86.70;;;;;;6124665;23;20220;-78
2022/11/07 05:05:29;;;;;;;10.00;4.70;;;17.30;86.70;;;;;;6123543;23;20231;-79
2022/11/07 05:07:59;;;;;;;13.40;5.33;;;17.40;86.60;;;;;;6123524;23;20208;-80
2022/11/07 05:10:28;;;;;;;9.47;4.77;;;17.30;86.40;;;;;;6123716;23;20507;-78
2022/11/07 05:12:57;;;;;;;10.03;5.30;;;17.30;86.40;;;;;;6123751;23;20173;-78
2022/11/07 05:15:25;;;;;;;10.13;4.60;;;17.30;86.40;;;;;;6123922;23;20244;-78
2022/11/07 05:17:53;;;;;;;10.30;5.73;;;17.30;86.40;;;;;;6124147;23;20462;-78
2022/11/07 05:20:28;;;;;;;8.77;5.00;;;17.30;86.30;;;;;;6124410;23;20177;-79
2022/11/07 05:23:16;;;;;;;11.53;4.70;;;17.30;86.30;;;;;;6120439;23;20622;-78
2022/11/07 05:25:47;;;;;;;11.73;5.17;;;17.40;86.40;;;;;;6123853;23;20220;-79
2022/11/07 05:28:18;;;;;;;14.13;5.80;;;17.40;86.30;;;;;;6125051;23;20666;-79
2022/11/07 05:30:58;;;;;;;10.93;5.13;;;17.40;86.30;;;;;;6122265;23;20591;-78
2022/11/07 05:33:27;;;;;;;10.00;5.47;;;17.40;86.30;;;;;;6122908;23;20173;-78
2022/11/07 05:35:56;;;;;;;11.93;5.23;;;17.40;86.30;;;;;;6125035;23;20177;-79
2022/11/07 05:38:25;;;;;;;16.30;5.30;;;17.40;86.20;;;;;;6124663;23;20184;-79
2022/11/07 05:40:54;;;;;;;13.03;6.03;;;17.40;86.20;;;;;;6124564;23;20436;-80
2022/11/07 05:43:22;;;;;;;17.97;5.70;;;17.40;86.30;;;;;;6122886;23;20200;-79
2022/11/07 05:45:51;;;;;;;16.07;5.10;;;17.40;86.30;;;;;;6123734;23;20177;-78
2022/11/07 05:48:19;;;;;;;13.23;4.83;;;17.40;86.30;;;;;;6126085;23;20224;-78
2022/11/07 05:50:47;;;;;;;21.93;5.93;;;17.40;86.40;;;;;;6132936;23;20316;-78
2022/11/07 05:53:16;;;;;;;11.67;5.50;;;17.30;86.30;;;;;;6130142;23;20184;-78
2022/11/07 05:55:46;;;;;;;12.67;5.77;;;17.40;86.40;;;;;;6131593;23;20173;-78
2022/11/07 05:58:16;;;;;;;16.47;6.30;;;17.40;86.40;;;;;;6133099;23;20682;-78
2022/11/07 06:00:46;;;;;;;9.67;5.27;;;17.40;86.40;;;;;;6130118;23;20177;-78
2022/11/07 06:03:14;;;;;;;12.80;5.83;;;17.40;86.40;;;;;;6127948;23;20481;-76
2022/11/07 06:05:43;;;;;;;16.83;6.20;;;17.40;86.30;;;;;;6134492;23;20865;-79
2022/11/07 06:08:13;;;;;;;10.57;5.60;;;17.40;86.30;;;;;;6128768;23;20208;-80
2022/11/07 06:10:43;;;;;;;11.53;5.90;;;17.50;86.40;;;;;;6127965;23;20181;-79
2022/11/07 06:13:15;;;;;;;10.57;4.83;;;17.40;86.40;;;;;;6122615;23;20188;-80
2022/11/07 06:15:45;;;;;;;14.73;5.77;;;17.40;86.30;;;;;;6123568;23;20161;-79
2022/11/07 06:18:15;;;;;;;11.13;4.93;;;17.50;86.40;;;;;;6127971;23;20173;-78
2022/11/07 06:20:44;;;;;;;17.37;4.87;;;17.50;86.40;;;;;;6123680;23;20197;-79
2022/11/07 06:23:12;;;;;;;15.33;5.47;;;17.50;86.40;;;;;;6130211;23;20169;-79
2022/11/07 06:25:41;;;;;;;12.13;4.93;;;17.50;86.40;;;;;;6129827;23;20177;-79
2022/11/07 06:28:13;;;;;;;16.27;5.83;;;17.50;86.40;;;;;;6125062;23;20201;-79
2022/11/07 06:30:42;;;;;;;9.53;4.87;;;17.50;86.30;;;;;;6124604;23;20225;-78
2022/11/07 06:33:13;;;;;;;12.57;5.73;;;17.60;86.30;;;;;;6123564;23;20244;-79
2022/11/07 06:35:41;;;;;;;15.77;6.30;;;17.60;86.40;;;;;;6123551;23;20637;-81
2022/11/07 06:38:11;;;;;;;8.10;5.07;;;17.60;86.20;;;;;;6125160;23;20215;-79
2022/11/07 06:40:41;;;;;;;12.40;5.32;;;17.50;86.10;;;;;;6125446;23;20738;-79
2022/11/07 06:43:13;;;;;;;11.33;5.47;;;17.60;86.20;;;;;;6125225;23;20161;-80
2022/11/07 06:45:43;;;;;;;11.43;4.57;;;17.60;86.20;;;;;;6127817;23;20200;-79
2022/11/07 06:48:12;;;;;;;13.43;4.80;;;17.60;86.20;;;;;;6124483;23;20177;-79
2022/11/07 06:50:40;;;;;;;12.70;4.63;;;17.60;86.20;;;;;;6126729;23;20196;-79
2022/11/07 06:53:10;;;;;;;12.43;4.90;;;17.60;86.10;;;;;;6123092;23;20174;-81
2022/11/07 06:55:39;;;;;;;11.80;5.30;;;17.60;86.10;;;;;;6124388;23;20240;-76
2022/11/07 06:58:08;;;;;;;11.53;5.03;;;17.60;85.90;;;;;;6123719;23;20504;-81
2022/11/07 07:00:37;;;;;;;15.00;5.30;;;17.60;85.80;;;;;;6125263;23;20180;-80
2022/11/07 07:03:06;;;;;;;9.23;4.70;;;17.60;85.70;;;;;;6126096;23;20173;-79
2022/11/07 07:05:35;;;;;;;13.27;5.23;;;17.60;85.80;;;;;;6125627;23;20173;-80
2022/11/07 07:08:04;;;;;;;16.07;5.47;;;17.60;85.70;;;;;;6126564;23;20173;-79
2022/11/07 07:10:36;;;;;;;12.97;5.30;;;17.60;85.70;;;;;;6123897;23;20197;-77
2022/11/07 07:13:04;;;;;;;9.53;4.33;;;17.60;85.70;;;;;;6123935;23;20165;-80
2022/11/07 07:15:33;;;;;;;11.73;5.20;;;17.60;85.30;;;;;;6124500;23;20181;-81
2022/11/07 07:18:19;;;;;;;11.60;5.60;;;17.50;84.90;;;;;;6122938;23;20168;-81
2022/11/07 07:20:48;;;;;;;12.97;5.17;;;17.50;84.90;;;;;;6122080;23;20591;-79
2022/11/07 07:23:17;;;;;;;11.37;5.17;;;17.40;84.90;;;;;;6123367;23;20180;-78
2022/11/07 07:25:45;;;;;;;11.88;5.70;;;17.50;85.10;;;;;;6124370;23;20755;-80
2022/11/07 07:28:14;;;;;;;9.83;4.80;;;17.50;85.20;;;;;;6123873;23;20197;-79
2022/11/07 07:30:42;;;;;;;12.77;4.87;;;17.60;85.30;;;;;;6122837;23;20204;-81
2022/11/07 07:33:19;;;;;;;14.63;5.00;;;17.50;84.80;;;;;;6122581;23;20161;-79
2022/11/07 07:35:48;;;;;;;9.17;5.00;;;17.50;84.70;;;;;;6124080;23;20232;-78
2022/11/07 07:38:16;;;;;;;10.63;4.93;;;17.50;84.80;;;;;;6126897;23;20176;-78
2022/11/07 07:40:45;;;;;;;12.27;5.23;;;17.50;84.50;;;;;;6125028;23;20177;-81
2022/11/07 07:43:13;;;;;;;10.07;4.33;;;17.40;84.50;;;;;;6123960;23;20170;-79
2022/11/07 07:45:42;;;;;;;13.13;4.83;;;17.50;84.70;;;;;;6123559;23;20495;-80
2022/11/07 07:48:10;;;;;;;12.73;4.53;;;17.50;84.80;;;;;;6121370;23;20228;-80
2022/11/07 07:50:40;;;;;;;7.97;4.17;;;17.60;84.70;;;;;;6123558;23;20232;-78
2022/11/07 07:53:08;;;;;;;7.97;4.17;;;17.50;84.10;;;;;;6128016;23;20607;-82
2022/11/07 07:55:36;;;;;;;10.60;4.47;;;17.60;84.20;;;;;;6124421;23;20173;-81
2022/11/07 07:58:06;;;;;;;8.90;4.43;;;17.60;83.80;;;;;;6130312;23;20173;-79
2022/11/07 08:00:34;;;;;;;8.43;4.57;;;17.60;83.30;;;;;;6127333;23;20177;-77
2022/11/07 08:03:03;;;;;;;9.30;4.63;;;17.60;82.70;;;;;;6130296;23;20678;-79
2022/11/07 08:05:32;;;;;;;12.37;5.30;;;17.60;82.90;;;;;;6128836;23;20220;-80
2022/11/07 08:08:01;;;;;;;7.60;4.80;;;17.60;82.90;;;;;;6124526;23;20177;-80
2022/11/07 08:10:30;;;;;;;10.50;4.97;;;17.60;82.70;;;;;;6128152;23;20279;-81
2022/11/07 08:13:13;;;;;;;13.80;4.50;;;17.70;82.90;;;;;;6127757;23;20213;-81
2022/11/07 08:15:42;;;;;;;9.47;4.50;;;17.70;82.60;;;;;;6127057;23;20215;-80
2022/11/07 08:18:10;;;;;;;14.03;4.53;;;17.60;81.80;;;;;;6125494;23;20177;-78
2022/11/07 08:20:39;;;;;;;11.37;4.00;;;17.70;82.00;;;;;;6127903;23;20690;-79
2022/11/07 08:23:10;;;;;;;13.60;4.83;;;17.70;82.00;;;;;;6124768;23;20209;-78
2022/11/07 08:25:48;;;;;;;9.13;4.30;;;17.80;81.60;;;;;;6124657;23;20239;-81
2022/11/07 08:28:17;;;;;;;11.23;4.70;;;17.80;81.40;;;;;;6125805;23;20201;-79
2022/11/07 08:30:45;;;;;;;6.90;4.17;;;17.80;81.10;;;;;;6123912;23;20197;-80
2022/11/07 08:33:13;;;;;;;9.50;3.90;;;17.80;81.10;;;;;;6125953;23;20492;-82
2022/11/07 08:35:42;;;;;;;7.97;3.87;;;17.80;81.00;;;;;;6126033;23;20173;-80
2022/11/07 08:38:12;;;;;;;11.73;4.10;;;17.90;81.00;;;;;;6125329;23;20235;-79
2022/11/07 08:40:40;;;;;;;11.00;4.47;;;17.90;80.90;;;;;;6126120;23;20388;-80
2022/11/07 08:43:09;;;;;;;9.67;4.20;;;17.90;80.30;;;;;;6127460;23;20213;-80
2022/11/07 08:45:37;;;;;;;9.00;3.83;;;18.00;80.30;;;;;;6128286;23;20232;-80
2022/11/07 08:48:06;;;;;;;8.87;3.63;;;18.00;79.70;;;;;;6124628;23;20177;-79
2022/11/07 08:50:34;;;;;;;11.80;5.20;;;18.00;79.60;;;;;;6124044;23;20729;-78
2022/11/07 08:53:02;;;;;;;9.73;3.40;;;18.00;79.50;;;;;;6125185;23;20622;-79
2022/11/07 08:55:32;;;;;;;8.77;4.37;;;18.00;79.60;;;;;;6123700;23;20177;-80
2022/11/07 08:58:01;;;;;;;11.43;4.10;;;18.00;79.40;;;;;;6124944;23;20173;-80
2022/11/07 09:00:30;;;;;;;9.97;3.93;;;18.10;79.10;;;;;;6130821;23;20184;-79
2022/11/07 09:03:02;;;;;;;8.93;3.47;;;18.10;78.90;;;;;;6124149;23;20241;-80
2022/11/07 09:05:50;;;;;;;11.20;3.93;;;18.10;78.90;;;;;;6123893;23;20554;-79
2022/11/07 09:08:19;;;;;;;9.80;4.00;;;18.10;78.60;;;;;;6125773;23;20177;-79
2022/11/07 09:10:49;;;;;;;10.87;4.07;;;18.10;78.80;;;;;;6124743;23;20251;-79
2022/11/07 09:13:19;;;;;;;7.87;4.10;;;18.20;78.60;;;;;;6125109;23;20162;-80
2022/11/07 09:15:48;;;;;;;6.83;3.63;;;18.20;77.80;;;;;;6122785;23;20513;-79
2022/11/07 09:18:19;;;;;;;8.17;3.90;;;18.20;78.00;;;;;;6124320;23;20158;-79
2022/11/07 09:20:47;;;;;;;7.10;3.67;;;18.30;77.80;;;;;;6123587;23;20545;-78
2022/11/07 09:23:15;;;;;;;9.67;3.77;;;18.30;77.80;;;;;;6122372;23;20498;-78
2022/11/07 09:25:45;;;;;;;9.10;3.60;;;18.30;77.80;;;;;;6123441;23;20177;-78
2022/11/07 09:28:15;;;;;;;9.13;4.07;;;18.30;78.00;;;;;;6122594;23;20217;-78
2022/11/07 09:30:43;;;;;;;9.47;4.30;;;18.30;77.10;;;;;;6122278;23;20192;-77
2022/11/07 09:33:11;;;;;;;11.67;4.13;;;18.40;77.40;;;;;;6123543;23;20212;-79
2022/11/07 09:35:40;;;;;;;8.40;4.07;;;18.30;77.70;;;;;;6122048;23;20173;-78
2022/11/07 09:38:08;;;;;;;9.70;4.60;;;18.40;77.00;;;;;;6122055;23;20177;-78
2022/11/07 09:40:43;;;;;;;13.70;4.77;;;18.40;76.90;;;;;;6122099;23;20169;-79
2022/11/07 09:43:43;;;;;;;9.50;4.57;;;18.40;77.20;;;;;;6123107;23;20673;-79
2022/11/07 09:46:27;;;;;;;11.27;4.93;;;18.50;77.10;;;;;;6122191;23;20161;-79
2022/11/07 09:49:01;;;;;;;15.03;5.30;;;18.50;77.10;;;;;;6119015;23;20216;-79
2022/11/07 09:51:35;;;;;;;13.93;5.87;;;18.60;76.90;;;;;;6123919;23;20185;-80
2022/11/07 09:54:11;;;;;;;7.93;4.30;;;18.60;76.90;;;;;;6123129;23;20203;-79
2022/11/07 09:56:43;;;;;;;14.30;5.40;;;18.70;76.90;;;;;;6120138;23;20219;-78
2022/11/07 09:59:20;;;;;;;13.93;4.93;;;18.70;76.10;;;;;;6123053;23;20169;-77
2022/11/07 10:01:48;;;;;;;12.57;5.00;;;18.80;75.50;;;;;;6124055;23;20161;-77
2022/11/07 10:04:19;;;;;;;8.07;4.60;;;18.80;75.90;;;;;;6123115;23;20169;-79
2022/11/07 10:06:59;;;;;;;11.63;4.97;;;18.90;75.90;;;;;;6123104;23;20237;-82
2022/11/07 10:09:38;;;;;;;10.47;5.30;;;18.90;75.60;;;;;;6120516;23;20160;-79
2022/11/07 10:12:16;;;;;;;17.47;5.47;;;18.80;75.20;;;;;;6124574;23;20555;-78
2022/11/07 10:14:53;;;;;;;13.93;4.43;;;18.80;75.10;;;;;;6124674;23;20185;-78
2022/11/07 10:17:30;;;;;;;10.53;4.93;;;18.90;75.00;;;;;;6123825;23;20633;-78
2022/11/07 10:20:10;;;;;;;10.90;5.70;;;18.90;74.70;;;;;;6122820;23;20610;-78
2022/11/07 10:22:52;;;;;;;12.03;5.03;;;18.90;74.80;;;;;;6122061;23;20221;-79
2022/11/07 10:25:24;;;;;;;9.87;5.37;;;19.00;75.00;;;;;;6122384;23;20165;-79
2022/11/07 10:28:05;;;;;;;10.85;5.03;;;19.10;75.00;;;;;;6126086;23;21051;-79
2022/11/07 10:30:35;;;;;;;10.43;4.83;;;19.10;74.70;;;;;;6127026;23;20169;-81
2022/11/07 10:33:07;;;;;;;15.27;4.93;;;19.10;74.40;;;;;;6129220;23;20177;-81
2022/11/07 10:35:39;;;;;;;9.10;4.50;;;19.30;74.70;;;;;;6128251;23;20196;-82
2022/11/07 10:38:18;;;;;;;12.23;4.80;;;19.30;74.70;;;;;;6125768;23;20169;-80
2022/11/07 10:40:47;;;;;;;11.57;5.05;;;19.30;74.20;;;;;;6123821;23;20217;-78
2022/11/07 10:43:22;;;;;;;9.13;4.77;;;19.40;74.00;;;;;;6122961;23;20563;-79
2022/11/07 10:45:55;;;;;;;9.98;4.70;;;19.40;73.90;;;;;;6125636;23;20204;-80
2022/11/07 10:48:24;;;;;;;9.98;5.15;;;19.40;73.80;;;;;;6124550;23;20646;-78
2022/11/07 10:50:53;;;;;;;11.40;4.22;;;19.50;73.80;;;;;;6124676;23;20201;-79
2022/11/07 10:53:24;;;;;;;10.35;5.93;;;19.40;73.10;;;;;;6128550;23;20177;-78
2022/11/07 10:55:53;;;;;;;11.63;5.03;;;19.50;73.20;;;;;;6125865;23;20749;-78
2022/11/07 10:58:24;;;;;;;12.23;5.13;;;19.50;73.20;;;;;;6127813;23;20476;-78
2022/11/07 11:01:05;;;;;;;9.93;4.32;;;19.50;72.50;;;;;;6125490;23;20201;-78
2022/11/07 11:03:39;;;;;;;13.18;4.95;;;19.50;72.60;;;;;;6127906;23;20157;-78
2022/11/07 11:06:23;;;;;;;11.53;4.67;;;19.50;72.00;;;;;;6128137;23;20161;-78
2022/11/07 11:08:52;;;;;;;10.32;4.65;;;19.60;72.40;;;;;;6126718;23;20161;-78
2022/11/07 11:11:33;;;;;;;11.27;4.53;;;19.60;72.50;;;;;;6127325;23;20224;-78
2022/11/07 11:14:03;;;;;;;10.10;4.75;;;19.60;72.50;;;;;;6124518;23;20165;-79
2022/11/07 11:16:36;;;;;;;14.30;4.87;;;19.60;72.60;;;;;;6124386;23;20172;-81
2022/11/07 11:19:06;;;;;;;11.68;4.85;;;19.60;72.30;;;;;;6124241;23;20637;-77
2022/11/07 11:21:43;;;;;;;11.10;5.07;;;19.70;72.10;;;;;;6127347;23;20466;-78
2022/11/07 11:24:37;;;;;;;15.32;5.57;;;19.70;72.40;;;;;;6126455;23;20161;-77
2022/11/07 11:27:13;;;;;;;11.15;4.57;;;19.70;71.30;;;;;;6126374;23;20158;-79
2022/11/07 11:29:48;;;;;;;12.57;5.22;;;19.70;70.30;;;;;;6129475;23;20161;-80
2022/11/07 11:32:24;;;;;;;10.27;4.40;;;19.70;70.20;;;;;;6127232;23;21473;-78
2022/11/07 11:35:01;;;;;;;12.82;5.65;;;19.70;70.30;;;;;;6128461;23;20168;-78
2022/11/07 11:37:33;;;;;;;15.98;4.75;;;19.80;70.60;;;;;;6129561;23;20619;-80
2022/11/07 11:40:11;;;;;;;13.30;4.83;;;19.80;70.30;;;;;;6125089;23;20166;-82
2022/11/07 11:42:48;;;;;;;7.88;4.85;;;19.80;70.50;;;;;;6125125;23;20169;-79
2022/11/07 11:45:21;;;;;;;7.72;4.72;;;19.90;70.20;;;;;;6126890;23;20168;-80
2022/11/07 11:47:59;;;;;;;12.20;4.67;;;19.90;69.70;;;;;;6128379;23;20162;-82
2022/11/07 11:50:34;;;;;;;8.93;4.63;;;19.90;69.90;;;;;;6123980;23;20189;-81
2022/11/07 11:53:02;;;;;;;12.43;5.20;;;19.90;69.60;;;;;;6127794;23;20220;-80
2022/11/07 11:55:38;;;;;;;11.33;4.53;;;20.00;69.70;;;;;;6126975;23;20177;-82
2022/11/07 11:58:19;;;;;;;13.88;5.47;;;20.00;69.40;;;;;;6127019;23;20200;-76
2022/11/07 12:00:57;;;;;;;12.07;4.43;;;20.00;69.40;;;;;;6123714;23;20615;-80
2022/11/07 12:03:46;;;;;;;10.17;4.70;;;20.10;69.60;;;;;;6125732;23;20165;-79
2022/11/07 12:06:16;;;;;;;8.60;4.60;;;20.10;69.40;;;;;;6122522;23;20196;-80
2022/11/07 12:08:59;;;;;;;9.73;5.50;;;20.10;68.40;;;;;;6126125;23;20200;-83
2022/11/07 12:11:36;;;;;;;12.23;5.27;;;20.10;67.60;;;;;;6122841;23;20189;-79
2022/11/07 12:14:20;;;;;;;11.88;5.72;;;20.10;67.20;;;;;;6127037;23;20161;-82
2022/11/07 12:16:58;;;;;;;11.93;5.72;;;20.10;67.60;;;;;;6126177;23;20166;-77
2022/11/07 12:19:32;;;;;;;10.98;5.68;;;20.10;67.50;;;;;;6123222;23;20165;-78
2022/11/07 12:22:09;;;;;;;12.93;5.47;;;20.20;67.70;;;;;;6123512;23;20169;-77
2022/11/07 12:24:46;;;;;;;12.73;5.88;;;20.20;67.60;;;;;;6122563;23;20224;-80
2022/11/07 12:27:26;;;;;;;13.70;6.43;;;20.20;66.60;;;;;;6124190;23;20731;-78
2022/11/07 12:30:08;;;;;;;10.48;5.47;;;20.20;66.50;;;;;;6123976;23;20195;-78
2022/11/07 12:32:49;;;;;;;15.27;6.03;;;20.20;66.80;;;;;;6123205;23;20236;-83
2022/11/07 12:35:35;;;;;;;13.20;5.65;;;20.20;66.60;;;;;;6123859;23;20173;-80
2022/11/07 12:38:22;;;;;;;11.65;4.60;;;20.20;67.00;;;;;;6123281;23;20687;-82
2022/11/07 12:40:57;;;;;;;11.15;5.10;;;20.30;67.40;;;;;;6122057;23;20162;-76
2022/11/07 12:43:40;;;;;;;14.63;6.20;;;20.40;67.60;;;;;;6123160;23;20219;-80
2022/11/07 12:46:16;;;;;;;13.20;6.03;;;20.40;67.50;;;;;;6122419;23;20380;-80
2022/11/07 12:49:12;;;;;;;14.02;5.78;;;20.60;67.30;;;;;;6123982;23;20232;-81
2022/11/07 12:51:50;;;;;;;13.73;5.15;;;20.70;67.40;;;;;;6121691;23;20240;-79
2022/11/07 12:54:39;;;;;;;9.77;5.75;;;20.70;67.60;;;;;;6120843;23;20169;-80
2022/11/07 12:57:16;;;;;;;12.00;5.80;;;20.80;67.80;;;;;;6122294;23;20506;-80
2022/11/07 12:59:50;;;;;;;12.48;5.53;;;20.90;68.30;;;;;;6122759;23;20175;-81
2022/11/07 13:02:51;;;;;;;13.38;5.10;;;21.00;68.00;;;;;;6123507;23;20157;-87
2022/11/07 13:05:43;;;;;;;9.73;5.45;;;21.10;67.80;;;;;;6039780;23;20169;-87
2022/11/07 13:08:17;;;;;;;11.38;5.13;;;21.20;67.00;;;;;;6124553;23;20236;-87
2022/11/07 13:10:53;;;;;;;8.48;4.63;;;21.40;67.10;;;;;;6126798;23;20168;-85